• Join FlightAware (Why Join?)
  • Login
  • US Flag 
09:02AM EDT


 

Airport Tracker/Info


-or-


 

Live Flight TrackerFlight Track Log ✈ JBU24 ✈ 11-May-2013 ✈ KJFK - KSYR

Flight Track Log - Related Links

Times and Time Zones

All times are in EDT time to prevent confusion due to time zone crossing. See the JBU24 flight status page for this flight to view local times or setup timezone preferences in your user account.

Time Position Orientation Groundspeed Altitude Reporting Facility
EDT Latitude Longitude Course Direction KTS MPH feet Rate Location/Type
08:27PM 40.6000 -73.8000 114° Southeast 158 182 1,500  Level New York TRACON
08:28PM 40.5833 -73.7500 114° Southeast 236 272 2,900 1,980 Climbing New York TRACON
08:29PM 40.6333 -73.6667 52° Northeast 288 331 5,600 2,940 Climbing New York TRACON
08:30PM 40.7167 -73.6167 24° Northeast 307 353 8,800 2,580 Climbing New York TRACON
08:31PM 40.8000 -73.6000 North 313 360 10,800 1,980 Climbing New York TRACON
08:32PM 40.9000 -73.6167 353° North 362 417 12,800 2,220 Climbing New York TRACON
08:33PM 40.9500 -73.7167 304° West 347 399 15,300 1,620 Climbing New York TRACON
08:35PM 41.0444 -74.0036 294° West 350 403 18,600 1,500 Climbing New York Center
08:36PM 41.0850 -74.1186 295° West 345 397 20,600 1,680 Climbing New York Center
08:37PM 41.1172 -74.2247 325° Northwest 345 397 22,000 660 Climbing New York Center
08:38PM 41.1575 -74.3481 293° West 345 397 22,000  Level New York Center
08:39PM 41.1953 -74.4714 292° West 358 412 22,000  Level New York Center
08:40PM 41.2392 -74.5978 295° West 368 423 22,000  Level New York Center
08:41PM 41.3083 -74.7122 309° West 381 438 22,000  Level New York Center
08:42PM 41.3733 -74.8211 309° West 388 447 22,000  Level New York Center
08:43PM 41.4406 -74.9275 310° West 383 441 22,000  Level New York Center
08:44PM 41.5053 -75.0342 309° West 383 441 22,000  Level New York Center
08:45PM 41.5700 -75.1436 308° West 383 441 22,000  Level New York Center
08:46PM 41.6347 -75.2506 309° West 378 435 22,000  Level New York Center
08:47PM 41.6994 -75.3578 309° West 378 435 22,000  Level New York Center
08:48PM 41.7639 -75.4678 308° West 378 435 22,000  Level New York Center
08:49PM 41.8300 -75.5808 308° West 385 443 22,000 -300 Level New York Center
08:50PM 41.8961 -75.6944 308° West 385 443 21,500 -1,440 Descending New York Center
08:51PM 41.9683 -75.8142 309° West 385 443 19,200 -2,100 Descending New York Center
08:52PM 42.0225 -75.9103 307° West 375 432 17,300 -2,040 Descending New York Center
08:53PM 42.0903 -76.0247 309° West 363 418 15,200 -2,040 Descending New York Center
08:54PM 42.1592 -76.1142 316° Northwest 352 405 13,300 -1,860 Descending New York Center
08:55PM 42.2583 -76.1278 354° North 335 386 11,500 -840 Descending New York Center
08:57PM 42.4328 -76.1086 North 357 411 11,100 -180 Descending Boston Center
08:58PM 42.5394 -76.0981 North 358 412 11,100 -300 Level Boston Center
08:59PM 42.6325 -76.1206 350° North 339 390 10,600 -840 Descending Boston Center
09:00PM 42.7106 -76.1561 341° North 285 328 9,500 -1,320 Descending Boston Center
09:01PM 42.7869 -76.1864 344° North 281 323 8,000 -1,680 Descending Boston Center
09:02PM 42.8608 -76.2192 342° North 282 325 6,200 -1,620 Descending Boston Center
09:03PM 42.9347 -76.2519 342° North 276 318 4,800 -1,380 Descending Boston Center
09:04PM 43.0025 -76.2817 342° North 260 299 3,500 -1,080 Descending Boston Center
09:05PM 43.0683 -76.3114 342° North 238 274 2,700 -420 Descending Boston Center
09:06PM 43.1236 -76.3406 339° North 207 238 2,700 -180 Level Boston Center
09:07PM 43.1811 -76.3642 343° North 212 244 2,400 -300 Descending Boston Center